Time;durP1;ratioP1;P1;durP2;ratioP2;P2;SDS_P1;SDS_P2;PMS_P1;PMS_P2;Temp;Humidity;BMP_temperature;BMP_pressure;BME280_temperature;BME280_humidity;BME280_pressure;Samples;Min_cycle;Max_cycle;Signal;HPM_P1;HPM_P2
2022/09/28 00:00:40;;;;;;;1.27;0.50;;;;;;;13.26;68.20;95398.97;4908453;28;20240;-81
2022/09/28 00:03:05;;;;;;;2.25;0.40;;;;;;;13.16;68.74;95399.25;4924216;28;20218;-81
2022/09/28 00:05:31;;;;;;;1.25;0.60;;;;;;;13.16;68.29;95388.78;4928104;28;20607;-81
2022/09/28 00:07:57;;;;;;;2.30;0.40;;;;;;;13.17;68.89;95382.50;4943005;28;20596;-80
2022/09/28 00:10:22;;;;;;;0.55;0.45;;;;;;;13.09;69.08;95376.97;4938475;28;20157;-80
2022/09/28 00:12:48;;;;;;;2.85;0.52;;;;;;;13.16;68.99;95371.28;4944216;28;20306;-80
2022/09/28 00:15:15;;;;;;;1.83;0.70;;;;;;;13.24;68.70;95369.75;4933820;28;20266;-80
2022/09/28 00:17:40;;;;;;;1.98;0.38;;;;;;;13.22;68.01;95362.22;4924834;28;20177;-80
2022/09/28 00:20:06;;;;;;;1.45;0.98;;;;;;;13.11;68.83;95350.53;4939943;28;20289;-80
2022/09/28 00:22:31;;;;;;;1.80;0.40;;;;;;;13.14;68.58;95344.69;4919257;28;20200;-79
2022/09/28 00:24:56;;;;;;;0.77;0.30;;;;;;;13.18;68.60;95337.00;4915620;28;20253;-80
2022/09/28 00:27:22;;;;;;;1.15;0.30;;;;;;;13.14;68.30;95341.31;4946662;28;20642;-80
2022/09/28 00:29:47;;;;;;;2.35;0.30;;;;;;;13.06;68.76;95335.75;4925368;28;20273;-80
2022/09/28 00:32:13;;;;;;;1.50;0.32;;;;;;;13.07;68.74;95329.47;4926703;28;21001;-80
2022/09/28 00:34:42;;;;;;;0.70;0.20;;;;;;;12.85;68.85;95332.97;4929101;28;20724;-80
2022/09/28 00:37:08;;;;;;;1.70;0.57;;;;;;;13.09;68.44;95340.38;4913601;28;20299;-80
2022/09/28 00:39:34;;;;;;;0.65;0.30;;;;;;;13.19;68.10;95331.47;4910396;28;20649;-81
2022/09/28 00:42:01;;;;;;;0.38;0.28;;;;;;;13.06;68.15;95335.00;4926760;28;20197;-81
2022/09/28 00:44:29;;;;;;;0.82;0.28;;;;;;;12.98;68.15;95338.38;4943895;28;20572;-80
2022/09/28 00:47:03;;;;;;;1.15;0.25;;;;;;;12.95;68.35;95331.13;4945220;28;20673;-82
2022/09/28 00:49:44;;;;;;;3.00;0.50;;;;;;;12.81;68.53;95328.63;4939275;28;20250;-80
2022/09/28 00:52:14;;;;;;;0.50;0.20;;;;;;;12.74;68.46;95316.03;4926404;28;20276;-81
2022/09/28 00:54:41;;;;;;;0.20;0.20;;;;;;;12.89;68.08;95315.59;4914576;28;20271;-80
2022/09/28 00:57:07;;;;;;;1.80;0.43;;;;;;;12.95;68.60;95316.22;4913598;28;20472;-80
2022/09/28 00:59:33;;;;;;;1.10;0.30;;;;;;;12.85;68.26;95309.47;4910011;28;20237;-79
2022/09/28 01:01:58;;;;;;;1.67;0.40;;;;;;;12.94;68.19;95314.69;4936472;28;20196;-80
2022/09/28 01:04:23;;;;;;;1.30;0.30;;;;;;;12.85;68.33;95306.84;4937671;28;20113;-80
2022/09/28 01:06:50;;;;;;;2.75;0.30;;;;;;;12.85;68.54;95311.28;4932190;28;20340;-80
2022/09/28 01:09:16;;;;;;;1.05;0.17;;;;;;;12.87;67.99;95307.31;4939367;28;20192;-80
2022/09/28 01:11:41;;;;;;;3.15;0.75;;;;;;;12.93;68.12;95306.06;4924496;28;20102;-80
2022/09/28 01:14:09;;;;;;;0.45;0.30;;;;;;;12.81;68.40;95311.13;4920453;28;20368;-80
2022/09/28 01:16:47;;;;;;;0.20;0.20;;;;;;;12.71;68.52;95314.81;4913929;28;20191;-80
2022/09/28 01:19:37;;;;;;;0.40;0.28;;;;;;;12.73;68.47;95309.25;4933718;28;20162;-80
2022/09/28 01:22:18;;;;;;;1.20;0.20;;;;;;;12.80;68.45;95314.81;4939883;28;20595;-80
2022/09/28 01:24:47;;;;;;;1.55;0.35;;;;;;;12.88;68.04;95318.50;4942918;28;20216;-80
2022/09/28 01:27:50;;;;;;;0.98;0.22;;;;;;;12.63;68.86;95315.53;4944884;28;20204;-80
2022/09/28 01:30:17;;;;;;;0.80;0.20;;;;;;;12.85;68.54;95314.69;4905818;28;20691;-80
2022/09/28 01:32:57;;;;;;;1.13;0.28;;;;;;;12.78;68.25;95309.13;4939832;28;20188;-80
2022/09/28 01:35:27;;;;;;;0.60;0.50;;;;;;;12.74;68.40;95306.34;4945766;28;20246;-80
2022/09/28 01:38:07;;;;;;;2.45;0.50;;;;;;;12.77;68.66;95312.81;4929294;28;20653;-80
2022/09/28 01:40:33;;;;;;;0.98;0.30;;;;;;;12.83;68.25;95302.97;4902444;28;20207;-80
2022/09/28 01:43:05;;;;;;;1.85;0.38;;;;;;;12.74;68.82;95298.50;4926321;28;20277;-80
2022/09/28 01:45:37;;;;;;;2.17;0.60;;;;;;;12.74;68.69;95292.53;4941122;28;20646;-80
2022/09/28 01:48:04;;;;;;;2.22;0.63;;;;;;;12.78;68.89;95296.06;4936985;28;20701;-80
2022/09/28 01:50:34;;;;;;;1.67;0.60;;;;;;;12.76;68.57;95287.75;4945260;28;20212;-80
2022/09/28 01:53:07;;;;;;;1.40;0.75;;;;;;;12.83;68.29;95289.94;4935027;28;20169;-80
2022/09/28 01:55:34;;;;;;;1.40;0.65;;;;;;;12.89;68.38;95284.25;4929659;28;20169;-80
2022/09/28 01:58:10;;;;;;;2.20;0.70;;;;;;;12.77;68.29;95278.88;4894079;28;20247;-80
2022/09/28 02:00:37;;;;;;;2.05;0.75;;;;;;;12.87;68.73;95269.97;4935099;28;20106;-80
2022/09/28 02:03:39;;;;;;;3.20;0.73;;;;;;;12.75;68.64;95281.00;4912386;28;20181;-80
2022/09/28 02:06:25;;;;;;;1.88;0.70;;;;;;;12.78;68.40;95277.00;4915372;28;20615;-80
2022/09/28 02:08:58;;;;;;;2.90;0.80;;;;;;;12.69;68.73;95277.00;4916341;28;20601;-81
2022/09/28 02:11:23;;;;;;;2.10;0.90;;;;;;;12.89;68.79;95276.41;4898769;28;20259;-81
2022/09/28 02:13:54;;;;;;;3.50;0.90;;;;;;;12.78;68.63;95274.41;4900611;28;20369;-81
2022/09/28 02:16:25;;;;;;;1.70;0.93;;;;;;;12.93;68.57;95277.34;4910045;28;20165;-80
2022/09/28 02:18:50;;;;;;;2.22;1.13;;;;;;;13.01;68.04;95283.66;4909733;28;20349;-81
2022/09/28 02:21:22;;;;;;;1.85;1.08;;;;;;;12.87;68.34;95275.19;4913304;28;20187;-81
2022/09/28 02:24:01;;;;;;;2.33;1.27;;;;;;;12.82;68.73;95276.09;4938575;28;20251;-81
2022/09/28 02:26:37;;;;;;;2.47;1.40;;;;;;;12.72;68.93;95279.00;4911878;28;20399;-80
2022/09/28 02:29:02;;;;;;;4.32;1.60;;;;;;;12.95;68.66;95282.25;4928367;28;20640;-80
2022/09/28 02:31:28;;;;;;;3.53;1.50;;;;;;;12.95;68.62;95273.66;4907370;28;20358;-81
2022/09/28 02:33:55;;;;;;;3.85;1.55;;;;;;;12.92;68.09;95269.84;4937424;28;20242;-81
2022/09/28 02:36:21;;;;;;;4.25;1.67;;;;;;;13.04;68.30;95269.19;4909048;28;20182;-81
2022/09/28 02:38:46;;;;;;;4.30;1.52;;;;;;;12.97;68.57;95269.69;4913759;28;20191;-81
2022/09/28 02:41:18;;;;;;;3.55;1.58;;;;;;;12.91;68.13;95279.50;4912244;28;20102;-81
2022/09/28 02:44:21;;;;;;;4.68;1.60;;;;;;;12.81;68.71;95269.34;4930613;28;20735;-81
2022/09/28 02:47:17;;;;;;;4.55;1.77;;;;;;;12.84;68.17;95273.19;4944030;28;20282;-80
2022/09/28 02:49:49;;;;;;;;;;;;;;;12.68;69.02;95268.41;4924895;28;20273;-81
2022/09/28 02:52:40;;;;;;;2.45;1.58;;;;;;;12.71;68.34;95269.63;4928774;28;20376;-81
2022/09/28 02:55:19;;;;;;;4.35;1.48;;;;;;;12.79;68.28;95266.25;4934909;28;20614;-81
2022/09/28 02:58:03;;;;;;;2.22;1.60;;;;;;;13.00;67.27;95265.69;4924078;28;20199;-81
2022/09/28 03:00:30;;;;;;;4.68;1.70;;;;;;;12.95;67.63;95265.81;4940871;28;20350;-81
2022/09/28 03:03:14;;;;;;;5.18;1.65;;;;;;;12.90;67.93;95267.53;4928694;28;20619;-81
2022/09/28 03:05:52;;;;;;;3.45;1.80;;;;;;;12.79;68.13;95276.72;4926840;28;20277;-81
2022/09/28 03:08:28;;;;;;;4.78;2.20;;;;;;;12.87;68.10;95269.97;4943386;28;20728;-81
2022/09/28 03:10:59;;;;;;;3.15;1.70;;;;;;;12.89;68.25;95260.00;4939664;28;20279;-81
2022/09/28 03:13:26;;;;;;;2.90;2.05;;;;;;;12.97;67.97;95256.63;4913668;28;20286;-81
2022/09/28 03:15:51;;;;;;;4.10;2.00;;;;;;;12.91;67.85;95255.97;4911782;28;20265;-82
2022/09/28 03:18:16;;;;;;;5.68;2.13;;;;;;;12.93;67.77;95259.06;4943665;28;20297;-81
2022/09/28 03:20:42;;;;;;;4.30;2.35;;;;;;;13.00;67.80;95257.84;4929442;28;20293;-81
2022/09/28 03:23:07;;;;;;;5.70;2.40;;;;;;;12.93;67.51;95240.75;4948448;28;20218;-81
2022/09/28 03:25:33;;;;;;;6.05;2.40;;;;;;;12.95;67.54;95250.16;4912945;28;20409;-81
2022/09/28 03:27:58;;;;;;;6.25;2.33;;;;;;;12.90;67.45;95249.25;4902455;28;20315;-81
2022/09/28 03:30:23;;;;;;;4.82;2.10;;;;;;;12.95;67.27;95252.75;4910871;28;20890;-81
2022/09/28 03:32:59;;;;;;;3.65;1.80;;;;;;;12.80;67.51;95259.97;4944912;28;20211;-81
2022/09/28 03:35:24;;;;;;;5.05;2.72;;;;;;;12.91;67.56;95248.16;4929657;28;20208;-81
2022/09/28 03:37:55;;;;;;;3.83;2.15;;;;;;;12.78;67.86;95246.44;4918597;28;20212;-81
2022/09/28 03:40:20;;;;;;;3.50;2.47;;;;;;;12.98;67.21;95252.91;4929070;28;20288;-81
2022/09/28 03:42:45;;;;;;;5.57;2.83;;;;;;;13.00;67.07;95255.97;4929338;28;20274;-81
2022/09/28 03:45:11;;;;;;;3.78;1.88;;;;;;;13.01;66.87;95256.78;4936731;28;20255;-81
2022/09/28 03:47:36;;;;;;;2.80;1.80;;;;;;;12.91;67.41;95247.38;4914789;28;20219;-81
2022/09/28 03:50:01;;;;;;;3.40;2.03;;;;;;;12.93;68.10;95253.81;4943329;28;20257;-80
2022/09/28 03:52:27;;;;;;;2.40;1.98;;;;;;;13.01;67.41;95254.16;4911139;28;20365;-81
2022/09/28 03:54:52;;;;;;;6.10;2.00;;;;;;;12.92;67.84;95251.53;4903502;28;20284;-80
2022/09/28 03:57:17;;;;;;;3.47;1.98;;;;;;;12.89;67.82;95252.91;4915054;28;20165;-81
2022/09/28 03:59:43;;;;;;;6.13;2.53;;;;;;;12.92;67.51;95248.94;4932555;28;20213;-81
2022/09/28 04:02:08;;;;;;;3.33;1.92;;;;;;;12.91;67.47;95244.78;4935624;28;20184;-81
2022/09/28 04:04:34;;;;;;;3.40;2.00;;;;;;;12.95;67.29;95244.94;4948623;28;20284;-81
2022/09/28 04:07:00;;;;;;;6.15;2.97;;;;;;;12.96;67.19;95251.69;4936781;28;20287;-80
2022/09/28 04:09:25;;;;;;;4.88;1.98;;;;;;;12.89;67.07;95250.31;4951793;28;20252;-82
2022/09/28 04:11:51;;;;;;;3.50;2.20;;;;;;;12.88;67.35;95255.81;4936895;28;20161;-81
2022/09/28 04:14:16;;;;;;;3.00;1.77;;;;;;;12.83;67.20;95254.13;4918734;28;20265;-82
2022/09/28 04:16:41;;;;;;;4.03;2.13;;;;;;;12.83;67.45;95266.41;4921209;28;20281;-81
2022/09/28 04:19:07;;;;;;;4.82;2.72;;;;;;;12.76;67.45;95272.09;4951285;28;20192;-80
2022/09/28 04:21:32;;;;;;;4.68;2.30;;;;;;;12.68;67.48;95273.63;4954020;28;20173;-81
2022/09/28 04:23:58;;;;;;;3.17;1.67;;;;;;;12.76;67.65;95259.03;4929564;28;20618;-81
2022/09/28 04:26:25;;;;;;;4.82;2.13;;;;;;;12.67;67.49;95264.25;4917836;28;20212;-81
2022/09/28 04:31:43;;;;;;;7.38;2.30;;;;;;;12.51;67.44;95256.06;4948402;28;20189;-80
2022/09/28 04:34:09;;;;;;;2.72;2.28;;;;;;;12.70;68.13;95268.09;4940431;28;20687;-81
2022/09/28 04:36:35;;;;;;;3.63;2.35;;;;;;;12.69;67.93;95267.31;4947870;28;20115;-81
2022/09/28 04:39:00;;;;;;;3.35;2.08;;;;;;;12.70;67.39;95271.47;4931240;28;20574;-81
2022/09/28 04:41:26;;;;;;;2.78;2.20;;;;;;;12.66;67.64;95270.56;4952247;28;20211;-80
2022/09/28 04:43:51;;;;;;;4.03;2.50;;;;;;;12.61;68.03;95269.91;4926764;28;20164;-81
2022/09/28 04:46:17;;;;;;;6.55;2.90;;;;;;;12.66;68.08;95272.38;4932190;28;20678;-80
2022/09/28 04:48:43;;;;;;;4.57;2.58;;;;;;;12.69;67.91;95272.53;4927506;28;20291;-81
2022/09/28 04:51:08;;;;;;;4.65;2.22;;;;;;;12.67;67.45;95273.94;4935885;28;20320;-81
2022/09/28 04:53:34;;;;;;;4.38;1.95;;;;;;;12.66;68.00;95275.00;4932079;28;20199;-81
2022/09/28 04:56:01;;;;;;;4.53;2.35;;;;;;;12.65;67.71;95281.31;4947145;28;20692;-81
2022/09/28 04:58:27;;;;;;;8.57;2.47;;;;;;;12.67;67.73;95273.94;4937456;28;20665;-81
2022/09/28 05:00:56;;;;;;;4.45;2.45;;;;;;;12.67;67.53;95279.16;4951626;28;20199;-80
2022/09/28 05:03:21;;;;;;;3.03;2.15;;;;;;;12.76;67.60;95272.09;4930693;28;20291;-80
2022/09/28 05:05:48;;;;;;;3.75;1.88;;;;;;;12.68;67.52;95280.66;4946788;28;20295;-80
2022/09/28 05:08:14;;;;;;;5.75;2.00;;;;;;;12.52;67.01;95278.47;4951645;28;20071;-80
2022/09/28 05:10:39;;;;;;;5.43;2.53;;;;;;;12.57;67.35;95285.41;4933564;28;20251;-80
2022/09/28 05:13:08;;;;;;;4.15;2.20;;;;;;;12.31;67.37;95273.06;4931141;28;20699;-80
2022/09/28 05:15:35;;;;;;;4.53;2.65;;;;;;;12.32;67.44;95284.25;4944728;28;20276;-80
2022/09/28 05:18:00;;;;;;;4.90;1.90;;;;;;;12.27;67.32;95287.00;4915038;28;20298;-80
2022/09/28 05:20:26;;;;;;;3.60;2.42;;;;;;;12.12;67.63;95286.31;4948572;28;20254;-80
2022/09/28 05:22:51;;;;;;;2.95;1.45;;;;;;;12.14;67.51;95288.66;4946821;28;20215;-80
2022/09/28 05:25:17;;;;;;;4.45;2.45;;;;;;;12.04;67.06;95289.66;4914809;28;20782;-80
2022/09/28 05:27:42;;;;;;;6.72;2.60;;;;;;;12.03;67.79;95288.13;4947087;28;20196;-81
2022/09/28 05:30:09;;;;;;;6.78;2.53;;;;;;;11.99;67.58;95289.78;4947793;28;20290;-80
2022/09/28 05:32:42;;;;;;;4.32;2.05;;;;;;;11.90;67.21;95294.94;4914794;28;20696;-80
2022/09/28 05:35:09;;;;;;;4.85;2.53;;;;;;;11.97;67.68;95297.16;4928112;28;20196;-80
2022/09/28 05:37:36;;;;;;;4.00;2.33;;;;;;;11.99;67.97;95306.22;4928688;28;20657;-81
2022/09/28 05:40:02;;;;;;;7.85;2.08;;;;;;;11.99;67.95;95308.03;4913584;28;20249;-80
2022/09/28 05:42:28;;;;;;;5.07;2.40;;;;;;;12.06;67.73;95311.00;4919847;28;20707;-81
2022/09/28 05:44:54;;;;;;;6.13;2.47;;;;;;;12.06;67.80;95318.81;4922467;28;20224;-81
2022/09/28 05:47:19;;;;;;;4.22;2.13;;;;;;;12.01;67.41;95316.34;4945015;28;20802;-81
2022/09/28 05:49:45;;;;;;;5.18;2.30;;;;;;;12.03;68.08;95323.88;4910177;28;20711;-81
2022/09/28 05:52:10;;;;;;;4.70;2.17;;;;;;;12.17;68.10;95321.97;4923150;28;20338;-80
2022/09/28 05:54:35;;;;;;;9.32;3.05;;;;;;;12.17;67.94;95317.50;4930624;28;20238;-80
2022/09/28 05:57:01;;;;;;;3.30;2.53;;;;;;;12.20;67.93;95323.19;4910016;28;20377;-80
2022/09/28 05:59:26;;;;;;;6.47;2.80;;;;;;;12.24;68.10;95324.16;4925996;28;20274;-80
2022/09/28 06:01:51;;;;;;;5.05;2.63;;;;;;;12.28;68.74;95330.28;4932769;28;20320;-80
2022/09/28 06:04:17;;;;;;;5.53;2.90;;;;;;;12.34;68.05;95335.09;4949278;28;20200;-81
2022/09/28 06:06:42;;;;;;;4.20;2.78;;;;;;;12.36;67.81;95332.94;4928829;28;20211;-80
2022/09/28 06:09:08;;;;;;;5.90;2.55;;;;;;;12.42;67.99;95338.03;4945224;28;20177;-80
2022/09/28 06:11:33;;;;;;;4.50;2.13;;;;;;;12.51;67.45;95326.56;4930653;28;20251;-80
2022/09/28 06:13:58;;;;;;;3.97;2.30;;;;;;;12.52;67.49;95328.09;4951660;28;20279;-80
2022/09/28 06:16:24;;;;;;;4.80;2.65;;;;;;;12.50;67.63;95332.84;4908895;28;20250;-80
2022/09/28 06:18:49;;;;;;;4.20;2.17;;;;;;;12.51;67.19;95338.84;4931259;28;20282;-80
2022/09/28 06:21:15;;;;;;;4.38;3.10;;;;;;;12.49;67.56;95327.91;4930013;28;20686;-80
2022/09/28 06:23:40;;;;;;;9.07;2.20;;;;;;;12.43;67.31;95336.97;4944326;28;20349;-80
2022/09/28 06:26:06;;;;;;;3.70;2.22;;;;;;;12.38;67.41;95335.25;4949798;28;20255;-80
2022/09/28 06:28:32;;;;;;;4.00;2.17;;;;;;;12.36;67.68;95338.16;4950179;28;20165;-80
2022/09/28 06:30:59;;;;;;;3.67;2.05;;;;;;;12.36;67.26;95350.44;4917749;28;20211;-80
2022/09/28 06:33:25;;;;;;;8.10;2.50;;;;;;;12.43;67.74;95345.56;4919545;28;20317;-80
2022/09/28 06:35:50;;;;;;;5.43;2.72;;;;;;;12.48;67.42;95345.44;4932265;28;20232;-80
2022/09/28 06:38:16;;;;;;;6.53;2.60;;;;;;;12.46;67.88;95358.00;4956681;28;20672;-80
2022/09/28 06:40:41;;;;;;;4.85;2.42;;;;;;;12.46;68.85;95363.22;4938466;28;20272;-80
2022/09/28 06:43:13;;;;;;;6.22;2.88;;;;;;;12.41;68.42;95360.75;4949571;28;20165;-80
2022/09/28 06:45:39;;;;;;;5.30;2.75;;;;;;;12.67;68.25;95362.69;4945692;28;20659;-80
2022/09/28 06:48:06;;;;;;;6.82;3.03;;;;;;;12.72;68.06;95359.97;4910726;28;20189;-80
2022/09/28 06:50:39;;;;;;;5.72;2.75;;;;;;;12.66;67.95;95367.16;5020720;23;20187;-80
2022/09/28 06:53:08;;;;;;;4.22;2.22;;;;;;;12.84;67.97;95370.59;4892765;28;20206;-81
2022/09/28 06:55:33;;;;;;;4.72;2.63;;;;;;;12.89;67.57;95360.00;4908266;28;20174;-80
2022/09/28 06:58:01;;;;;;;5.15;2.25;;;;;;;12.93;67.35;95370.59;4974413;23;20235;-83
2022/09/28 07:00:28;;;;;;;4.25;2.30;;;;;;;13.17;66.65;95369.44;4935504;28;20708;-80
2022/09/28 07:02:53;;;;;;;3.65;2.50;;;;;;;13.13;66.63;95371.91;4899201;28;20215;-80
2022/09/28 07:05:25;;;;;;;4.40;2.30;;;;;;;13.33;65.95;95380.25;4994364;23;20252;-83
2022/09/28 07:07:54;;;;;;;3.17;1.90;;;;;;;13.39;65.53;95386.88;4871299;28;20203;-81
2022/09/28 07:10:22;;;;;;;5.05;2.30;;;;;;;13.49;64.92;95386.59;4991193;23;20326;-83
2022/09/28 07:12:48;;;;;;;6.93;1.83;;;;;;;13.42;66.13;95384.41;4893194;28;20265;-81
2022/09/28 07:17:45;;;;;;;4.70;2.28;;;;;;;13.45;66.38;95396.09;4920165;28;20205;-81
2022/09/28 07:22:46;;;;;;;;;;;;;;;13.11;65.91;95402.78;5551767;22;21400;-81
2022/09/28 07:25:13;;;;;;;4.47;2.05;;;;;;;13.34;64.58;95400.09;5050026;23;20089;-81
2022/09/28 07:30:06;;;;;;;3.17;2.13;;;;;;;13.47;64.24;95407.03;4971033;23;20225;-82
2022/09/28 07:32:35;;;;;;;4.47;2.30;;;;;;;13.50;64.32;95411.63;5012287;23;20198;-81
2022/09/28 07:35:06;;;;;;;3.65;1.90;;;;;;;13.53;64.96;95418.88;4917235;28;20327;-81
2022/09/28 07:37:33;;;;;;;4.63;2.00;;;;;;;13.56;65.26;95417.50;4894038;28;20171;-82
2022/09/28 07:42:42;;;;;;;2.38;1.60;;;;;;;13.94;64.59;95435.97;4908894;28;20174;-81
2022/09/28 07:45:07;;;;;;;2.67;1.85;;;;;;;14.08;64.16;95427.19;4875165;28;20328;-81
2022/09/28 07:47:33;;;;;;;5.43;2.35;;;;;;;14.05;63.70;95429.34;4913428;23;20290;-82
2022/09/28 07:49:58;;;;;;;4.32;2.30;;;;;;;14.42;61.68;95434.22;4873380;29;20233;-80
2022/09/28 07:52:25;;;;;;;4.20;2.45;;;;;;;14.38;61.97;95431.47;4886657;28;20725;-81
2022/09/28 07:54:52;;;;;;;3.15;1.75;;;;;;;14.46;62.47;95437.00;4870192;29;20290;-80
2022/09/28 07:57:18;;;;;;;3.78;1.90;;;;;;;14.60;61.75;95433.13;4869750;29;20277;-81
2022/09/28 07:59:44;;;;;;;4.80;2.22;;;;;;;14.64;61.72;95443.00;4852793;29;20293;-81
2022/09/28 08:02:10;;;;;;;4.68;1.90;;;;;;;14.37;63.56;95440.38;4851941;29;20173;-81
2022/09/28 08:04:35;;;;;;;3.35;2.10;;;;;;;14.45;63.16;95448.56;4867566;29;20284;-81
2022/09/28 08:07:01;;;;;;;4.93;1.80;;;;;;;14.38;61.97;95447.19;4886705;28;20259;-82
2022/09/28 08:09:28;;;;;;;4.35;1.80;;;;;;;14.40;61.66;95455.47;4872845;29;20191;-81
2022/09/28 08:11:53;;;;;;;5.03;1.77;;;;;;;14.36;62.89;95448.56;4851546;29;20191;-80
2022/09/28 08:14:19;;;;;;;5.70;1.85;;;;;;;14.42;62.46;95453.31;4868197;29;20203;-81
2022/09/28 08:16:44;;;;;;;3.95;1.85;;;;;;;14.81;59.99;95452.66;4875583;29;20207;-82
2022/09/28 08:19:10;;;;;;;2.83;1.42;;;;;;;15.01;60.20;95462.44;4888125;28;20179;-81
2022/09/28 08:21:44;;;;;;;4.68;1.88;;;;;;;14.93;59.62;95471.09;4871006;29;20207;-83
2022/09/28 08:24:14;;;;;;;2.53;1.58;;;;;;;14.75;57.90;95465.94;4854688;29;20646;-82
2022/09/28 08:26:41;;;;;;;4.40;2.03;;;;;;;14.65;58.34;95466.25;4870961;29;20211;-80
2022/09/28 08:29:07;;;;;;;4.43;2.10;;;;;;;14.65;59.95;95465.47;4869184;29;20187;-81
2022/09/28 08:31:33;;;;;;;3.72;1.80;;;;;;;14.58;58.92;95471.97;4867724;29;20226;-80
2022/09/28 08:33:58;;;;;;;4.65;1.88;;;;;;;14.52;59.02;95467.19;4884028;28;20188;-80
2022/09/28 08:36:24;;;;;;;3.15;1.40;;;;;;;14.41;58.32;95471.97;4883982;28;20615;-81
2022/09/28 08:38:49;;;;;;;4.60;1.73;;;;;;;14.37;58.40;95471.81;4859247;29;20109;-81
2022/09/28 08:41:33;;;;;;;4.88;1.70;;;;;;;14.17;58.69;95478.47;4834251;29;20208;-81
2022/09/28 08:43:59;;;;;;;3.60;1.58;;;;;;;14.35;60.97;95488.91;4848759;29;20212;-82
2022/09/28 08:46:29;;;;;;;3.35;1.35;;;;;;;14.36;59.27;95491.22;4851846;29;20213;-80
2022/09/28 08:49:02;;;;;;;4.45;2.13;;;;;;;14.36;60.07;95491.22;4836889;29;20216;-80
2022/09/28 08:52:12;;;;;;;3.65;1.70;;;;;;;14.20;60.65;95493.53;4836590;29;20287;-81
2022/09/28 08:54:57;;;;;;;3.40;1.80;;;;;;;14.21;59.88;95492.47;4842125;29;20299;-80
2022/09/28 08:57:29;;;;;;;2.85;1.50;;;;;;;14.32;59.25;95505.25;4838280;29;20673;-82
2022/09/28 08:59:56;;;;;;;4.07;1.33;;;;;;;14.38;57.94;95496.94;4854405;29;20218;-82
2022/09/28 09:02:26;;;;;;;3.45;1.80;;;;;;;14.49;58.02;95509.69;4837018;29;20208;-81
2022/09/28 09:04:51;;;;;;;3.20;1.73;;;;;;;14.55;58.58;95501.38;4837112;29;20591;-81
2022/09/28 09:07:55;;;;;;;2.70;1.60;;;;;;;14.57;58.13;95501.81;4853633;29;20161;-82
2022/09/28 09:10:36;;;;;;;2.83;1.33;;;;;;;14.42;59.78;95505.69;4795728;29;20092;-80
2022/09/28 09:13:52;;;;;;;1.85;1.00;;;;;;;14.24;57.39;95512.03;4780960;29;20652;-81
2022/09/28 09:17:11;;;;;;;5.20;1.38;;;;;;;14.12;58.47;95511.84;4750308;29;20288;-81
2022/09/28 09:19:51;;;;;;;3.55;1.15;;;;;;;14.37;57.59;95518.94;4730759;29;20277;-81
2022/09/28 09:22:29;;;;;;;4.50;1.30;;;;;;;14.13;57.55;95519.41;4778311;29;20310;-81
2022/09/28 09:25:06;;;;;;;3.08;1.52;;;;;;;14.17;56.48;95522.16;4786656;29;20298;-81
2022/09/28 09:27:52;;;;;;;1.90;1.30;;;;;;;14.51;56.71;95531.09;4793603;29;20640;-81
2022/09/28 09:30:23;;;;;;;2.60;1.42;;;;;;;14.79;56.77;95523.72;4794685;29;20589;-81
2022/09/28 09:32:57;;;;;;;2.00;0.98;;;;;;;14.98;56.63;95521.50;4749651;29;20303;-80
2022/09/28 09:35:37;;;;;;;2.60;0.90;;;;;;;15.17;56.39;95522.97;4781085;29;20667;-82
2022/09/28 09:38:40;;;;;;;1.65;0.95;;;;;;;14.84;52.02;95523.53;4776803;29;20330;-81
2022/09/28 09:41:41;;;;;;;2.45;1.20;;;;;;;14.73;53.21;95517.84;4806443;29;20268;-82
2022/09/28 09:44:27;;;;;;;3.03;0.95;;;;;;;14.64;53.73;95538.06;4822585;29;20671;-81
2022/09/28 09:47:08;;;;;;;2.25;1.20;;;;;;;14.48;55.20;95529.09;4836707;29;20192;-81
2022/09/28 09:49:40;;;;;;;1.98;1.05;;;;;;;14.71;56.02;95534.97;4836000;29;20189;-80
2022/09/28 09:52:13;;;;;;;1.00;0.88;;;;;;;15.00;55.84;95531.66;4834529;29;20407;-80
2022/09/28 09:55:02;;;;;;;3.10;1.20;;;;;;;14.91;54.53;95533.56;4836514;29;20647;-81
2022/09/28 09:57:38;;;;;;;3.30;1.27;;;;;;;15.14;55.50;95526.97;4836221;29;20737;-81
2022/09/28 10:00:09;;;;;;;2.90;0.90;;;;;;;15.26;51.09;95530.81;4833274;29;20296;-81
2022/09/28 10:02:35;;;;;;;4.18;1.33;;;;;;;15.41;50.13;95527.66;4867785;29;20362;-81
2022/09/28 10:05:06;;;;;;;1.65;0.90;;;;;;;15.42;51.23;95539.69;4837256;29;20300;-82
2022/09/28 10:07:48;;;;;;;2.15;0.80;;;;;;;15.27;52.54;95532.38;4837458;29;20727;-80
2022/09/28 10:10:25;;;;;;;2.13;1.00;;;;;;;15.03;54.91;95528.44;4847066;29;20189;-80
2022/09/28 10:12:50;;;;;;;2.70;0.95;;;;;;;15.13;53.38;95533.34;4852370;29;20250;-81
2022/09/28 10:15:21;;;;;;;2.05;1.15;;;;;;;15.06;53.29;95534.88;4851893;29;20711;-81
2022/09/28 10:17:46;;;;;;;1.42;0.77;;;;;;;15.43;53.42;95535.97;4851729;29;20627;-81
2022/09/28 10:20:14;;;;;;;2.40;1.05;;;;;;;15.70;51.64;95531.38;4835228;29;20285;-81
2022/09/28 10:22:40;;;;;;;1.63;1.17;;;;;;;15.92;52.44;95540.88;4850795;29;20156;-80
2022/09/28 10:25:08;;;;;;;4.57;1.00;;;;;;;15.86;52.61;95532.38;4837665;29;20106;-81
2022/09/28 10:27:35;;;;;;;3.65;1.15;;;;;;;15.83;52.23;95535.63;4837342;29;20195;-81
2022/09/28 10:30:07;;;;;;;3.03;0.80;;;;;;;15.59;53.62;95544.06;4851674;29;20117;-80
2022/09/28 10:32:36;;;;;;;3.38;1.35;;;;;;;15.59;54.00;95545.94;4852788;29;20256;-81
2022/09/28 10:35:17;;;;;;;2.75;0.98;;;;;;;15.34;54.89;95545.75;4837158;29;20499;-81
2022/09/28 10:38:11;;;;;;;2.92;0.90;;;;;;;15.45;53.71;95539.06;4853543;29;20188;-81
2022/09/28 10:40:54;;;;;;;1.88;1.05;;;;;;;15.62;52.60;95532.19;4844752;29;20227;-81
2022/09/28 10:43:37;;;;;;;2.50;1.20;;;;;;;15.88;52.74;95535.47;4835796;29;20646;-81
2022/09/28 10:46:14;;;;;;;1.67;0.93;;;;;;;16.07;54.37;95539.50;4832427;29;20664;-80
2022/09/28 10:48:53;;;;;;;2.42;1.00;;;;;;;16.23;51.92;95532.59;4850848;29;20086;-80
2022/09/28 10:51:19;;;;;;;2.58;1.00;;;;;;;17.04;48.57;95527.88;4850661;29;20280;-80
2022/09/28 10:54:01;;;;;;;3.10;1.45;;;;;;;16.63;46.66;95534.75;4835417;29;20241;-80
2022/09/28 10:56:28;;;;;;;2.70;1.02;;;;;;;17.02;45.95;95526.66;4835445;29;20181;-82
2022/09/28 10:58:54;;;;;;;2.55;0.60;;;;;;;17.27;46.30;95531.94;4863529;29;20283;-80
2022/09/28 11:01:25;;;;;;;2.95;1.02;;;;;;;17.52;46.87;95532.75;4836024;29;20303;-81
2022/09/28 11:03:56;;;;;;;1.83;0.80;;;;;;;17.54;47.12;95541.06;4837845;29;20188;-80
2022/09/28 11:06:41;;;;;;;2.40;1.17;;;;;;;16.96;49.33;95523.47;4837341;29;20658;-81
2022/09/28 11:09:25;;;;;;;3.25;0.82;;;;;;;16.80;46.21;95522.53;4834536;29;20173;-81
2022/09/28 11:11:51;;;;;;;2.22;0.95;;;;;;;16.75;46.26;95533.25;4835009;29;20298;-81
2022/09/28 11:14:45;;;;;;;2.35;0.80;;;;;;;16.25;47.35;95540.94;4850524;29;20203;-81
2022/09/28 11:17:26;;;;;;;3.38;0.90;;;;;;;16.13;50.30;95540.88;4837974;29;20267;-80
2022/09/28 11:19:56;;;;;;;3.20;0.73;;;;;;;16.21;49.60;95536.63;4852253;29;20117;-81
2022/09/28 11:22:28;;;;;;;3.40;1.15;;;;;;;16.23;50.40;95534.47;4837308;29;20044;-81
2022/09/28 11:25:16;;;;;;;1.70;0.60;;;;;;;16.00;48.29;95531.38;4836299;29;20702;-81
2022/09/28 11:27:50;;;;;;;3.67;0.82;;;;;;;15.92;50.11;95533.00;4852568;29;20211;-81
2022/09/28 11:30:33;;;;;;;2.50;0.93;;;;;;;15.87;48.37;95531.31;4852620;29;20375;-82
2022/09/28 11:33:05;;;;;;;1.60;0.90;;;;;;;15.82;48.17;95525.47;4850081;29;20169;-80
2022/09/28 11:35:51;;;;;;;3.15;1.10;;;;;;;15.67;48.84;95534.63;4847548;29;20212;-81
2022/09/28 11:38:27;;;;;;;1.42;0.80;;;;;;;15.52;51.05;95531.47;4852604;28;20208;-82
2022/09/28 11:41:13;;;;;;;2.47;0.75;;;;;;;15.50;48.30;95538.13;4852521;29;20263;-80
2022/09/28 11:43:55;;;;;;;2.63;1.10;;;;;;;15.72;49.06;95537.09;4851972;29;20212;-81
2022/09/28 11:46:50;;;;;;;4.03;1.08;;;;;;;16.19;48.45;95536.94;4840497;29;20231;-80
2022/09/28 11:49:24;;;;;;;2.13;1.23;;;;;;;17.46;44.03;95524.31;4860145;29;20361;-82
2022/09/28 11:51:51;;;;;;;1.05;0.63;;;;;;;18.69;42.57;95528.53;4854087;29;20177;-81
2022/09/28 11:54:43;;;;;;;2.80;0.98;;;;;;;19.55;42.87;95517.47;4851378;29;20710;-80
2022/09/28 11:57:29;;;;;;;3.85;1.35;;;;;;;19.35;41.45;95518.53;4850887;29;20442;-80
2022/09/28 11:59:58;;;;;;;1.40;0.80;;;;;;;19.06;41.69;95517.84;4849542;29;20558;-81
2022/09/28 12:02:26;;;;;;;2.13;1.20;;;;;;;18.44;41.87;95512.84;4835518;29;20357;-80
2022/09/28 12:04:55;;;;;;;2.88;0.90;;;;;;;17.77;42.80;95518.47;4850854;29;20247;-81